createdAt,value
2019-01-29T00:08:50.599Z,6.37
2019-01-29T00:20:35.063Z,6.97
2019-01-29T00:32:19.588Z,5.07
2019-01-29T00:44:04.227Z,5.17
2019-01-29T00:55:48.708Z,6.43
2019-01-29T01:07:34.814Z,46.17
2019-01-29T01:19:19.356Z,64.97
2019-01-29T01:31:03.836Z,80.90
2019-01-29T01:42:48.394Z,10.83
2019-01-29T01:54:32.848Z,16.20
2019-01-29T02:06:17.319Z,16.73
2019-01-29T02:18:02.656Z,9.13
2019-01-29T02:29:47.119Z,4.30
2019-01-29T02:41:32.432Z,7.97
2019-01-29T02:53:18.467Z,34.33
2019-01-29T03:05:07.580Z,9.60
2019-01-29T03:16:52.099Z,7.10
2019-01-29T03:28:37.430Z,5.20
2019-01-29T03:40:27.186Z,5.83
2019-01-29T03:52:11.822Z,9.57
2019-01-29T04:03:56.392Z,7.30
2019-01-29T04:15:40.895Z,6.97
2019-01-29T04:27:25.476Z,7.80
2019-01-29T04:39:11.455Z,6.90
2019-01-29T04:50:55.933Z,8.60
2019-01-29T05:02:40.380Z,9.83
2019-01-29T05:14:24.916Z,14.57
2019-01-29T05:26:09.431Z,13.23
2019-01-29T05:37:53.908Z,11.77
2019-01-29T05:49:38.329Z,10.17
2019-01-29T06:01:22.852Z,7.87
2019-01-29T06:13:08.840Z,10.80
2019-01-29T06:24:53.344Z,10.80
2019-01-29T06:36:37.813Z,15.67
2019-01-29T06:48:22.479Z,19.20
2019-01-29T07:00:26.043Z,15.60
2019-01-29T07:12:10.551Z,13.63
2019-01-29T07:23:56.048Z,9.27
2019-01-29T07:35:40.620Z,14.90
2019-01-29T07:47:25.059Z,26.40
2019-01-29T07:59:09.627Z,55.13
2019-01-29T08:10:55.009Z,32.57
2019-01-29T08:22:39.464Z,14.87
2019-01-29T08:34:23.948Z,40.97
2019-01-29T08:46:08.496Z,115.43
2019-01-29T08:57:53.004Z,29.23
2019-01-29T09:09:37.460Z,43.53
2019-01-29T09:21:22.792Z,30.33
2019-01-29T09:33:07.492Z,8.70
2019-01-29T09:44:52.023Z,10.50
2019-01-29T09:56:36.594Z,9.10
2019-01-29T10:08:21.089Z,9.20
2019-01-29T10:20:07.260Z,10.77
2019-01-29T10:31:53.427Z,7.67
2019-01-29T10:43:37.972Z,11.63
2019-01-29T10:55:22.785Z,13.07
2019-01-29T11:07:07.324Z,28.70
2019-01-29T11:18:51.901Z,15.30
2019-01-29T11:30:36.522Z,16.07
2019-01-29T11:42:21.915Z,11.80
2019-01-29T11:54:06.504Z,8.57
2019-01-29T12:05:51.972Z,10.40
2019-01-29T12:17:36.427Z,10.23
2019-01-29T12:29:21.835Z,22.10
2019-01-29T12:41:06.508Z,13.97
2019-01-29T12:53:03.940Z,24.43
2019-01-29T13:04:48.781Z,16.23
2019-01-29T13:16:34.077Z,17.07
2019-01-29T13:28:18.571Z,31.57
2019-01-29T13:40:03.305Z,18.30
2019-01-29T13:51:47.759Z,9.73
2019-01-29T14:03:32.264Z,15.47
2019-01-29T14:20:26.252Z,11.83
2019-01-29T14:32:10.717Z,17.10
2019-01-29T14:43:55.201Z,23.20
2019-01-29T14:55:40.744Z,22.17
2019-01-29T15:07:30.555Z,17.93
2019-01-29T15:19:13.175Z,13.97
2019-01-29T15:30:58.519Z,23.87
2019-01-29T15:42:42.950Z,15.57
2019-01-29T15:54:27.468Z,29.70
2019-01-29T16:06:11.896Z,15.13
2019-01-29T16:17:56.333Z,32.77
2019-01-29T16:29:42.586Z,31.83
2019-01-29T16:41:27.850Z,58.40
2019-01-29T16:53:12.360Z,68.67
2019-01-29T17:04:56.892Z,97.93
2019-01-29T17:16:41.419Z,50.83
2019-01-29T17:29:41.709Z,405.90
2019-01-29T17:42:19.000Z,78.70
2019-01-29T17:54:03.445Z,90.70
2019-01-29T18:05:48.052Z,102.23
2019-01-29T18:17:32.635Z,92.53
2019-01-29T18:31:11.980Z,107.17
2019-01-29T18:49:26.463Z,113.43
2019-01-29T19:01:47.612Z,177.37
2019-01-29T19:11:52.772Z,278.57
2019-01-29T19:21:57.940Z,176.60
2019-01-29T19:32:05.131Z,139.67
2019-01-29T19:42:10.617Z,196.70
2019-01-29T19:52:16.833Z,197.80
2019-01-29T20:02:22.090Z,230.70
2019-01-29T20:12:27.267Z,222.03
2019-01-29T20:22:32.364Z,275.23
2019-01-29T20:32:38.586Z,220.37
2019-01-29T20:42:43.808Z,283.57
2019-01-29T20:52:49.805Z,256.07
2019-01-29T21:02:54.996Z,265.87
2019-01-29T21:13:00.245Z,222.97
2019-01-29T21:23:05.520Z,337.80
2019-01-29T21:33:11.704Z,301.90
2019-01-29T21:43:16.832Z,229.23
2019-01-29T21:53:25.530Z,236.07
2019-01-29T22:03:32.104Z,268.17
2019-01-29T22:13:37.313Z,218.97
2019-01-29T22:23:42.444Z,179.53
2019-01-29T22:33:47.719Z,157.13
2019-01-29T22:43:52.852Z,125.23
2019-01-29T22:53:59.621Z,65.83
2019-01-29T23:04:34.693Z,73.63
2019-01-29T23:14:39.799Z,57.07
2019-01-29T23:24:45.007Z,79.47
2019-01-29T23:34:50.387Z,82.60
2019-01-29T23:44:55.515Z,61.73
2019-01-29T23:55:01.716Z,71.97
